Leibnitz, Austria
Current Conditions -  °F | °C
As of 5:50 AM on Saturday 20 Dec 2014 (Local Time) from LOWG Reporting Station
Light Fog Light Fog  
Wind Chill: 32°   Ceiling: Unl
Heat Index: 32°   Visibility: 4mi
Dew Point: 32°   Wind: 3mph
Humidity: 100%   Direction: NA
Pressure: 30.09"   Gusts: NA
Location:  46.78°N, 15.56°E
Report Text: LOWG 200450Z VRB03KT 6000 0500S R35/0700D BCFG FEW140 00/M00 Q1019 R17/CLRD// TEMPO 1200
Loading
Personal Weather Stations






























Interactive Weather Map New forecast layout! Learn more

10-Day Weather Forecast

Advertisements
Track Severe Weather on mobile